sensor_id;sensor_type;location;lat;lon;timestamp;P1;durP1;ratioP1;P2;durP2;ratioP2
23676;SDS011;31493;49.058;12.190;2023-04-19T00:02:07;27.75;;;18.75;;
23676;SDS011;31493;49.058;12.190;2023-04-19T00:04:34;27.92;;;19.02;;
23676;SDS011;31493;49.058;12.190;2023-04-19T00:07:02;32.50;;;20.20;;
23676;SDS011;31493;49.058;12.190;2023-04-19T00:09:31;28.13;;;18.85;;
23676;SDS011;31493;49.058;12.190;2023-04-19T00:11:58;32.70;;;18.85;;
23676;SDS011;31493;49.058;12.190;2023-04-19T00:14:25;30.35;;;19.20;;
23676;SDS011;31493;49.058;12.190;2023-04-19T00:16:52;28.92;;;19.30;;
23676;SDS011;31493;49.058;12.190;2023-04-19T00:19:19;28.58;;;19.70;;
23676;SDS011;31493;49.058;12.190;2023-04-19T00:21:47;33.30;;;20.45;;
23676;SDS011;31493;49.058;12.190;2023-04-19T00:24:15;31.02;;;19.40;;
23676;SDS011;31493;49.058;12.190;2023-04-19T00:26:43;36.13;;;20.55;;
23676;SDS011;31493;49.058;12.190;2023-04-19T00:29:10;20.95;;;14.27;;
23676;SDS011;31493;49.058;12.190;2023-04-19T00:31:37;31.05;;;20.00;;
23676;SDS011;31493;49.058;12.190;2023-04-19T00:34:05;29.13;;;19.33;;
23676;SDS011;31493;49.058;12.190;2023-04-19T00:36:32;29.95;;;19.85;;
23676;SDS011;31493;49.058;12.190;2023-04-19T00:38:59;28.23;;;19.10;;
23676;SDS011;31493;49.058;12.190;2023-04-19T00:41:26;31.27;;;19.42;;
23676;SDS011;31493;49.058;12.190;2023-04-19T00:43:55;30.73;;;21.08;;
23676;SDS011;31493;49.058;12.190;2023-04-19T00:46:22;30.85;;;20.05;;
23676;SDS011;31493;49.058;12.190;2023-04-19T00:48:49;31.75;;;20.10;;
23676;SDS011;31493;49.058;12.190;2023-04-19T00:51:16;28.35;;;19.55;;
23676;SDS011;31493;49.058;12.190;2023-04-19T00:53:43;34.10;;;21.15;;
23676;SDS011;31493;49.058;12.190;2023-04-19T00:56:11;34.38;;;21.95;;
23676;SDS011;31493;49.058;12.190;2023-04-19T00:58:40;33.42;;;20.63;;
23676;SDS011;31493;49.058;12.190;2023-04-19T01:01:08;34.00;;;20.65;;
23676;SDS011;31493;49.058;12.190;2023-04-19T01:03:35;37.78;;;21.20;;
23676;SDS011;31493;49.058;12.190;2023-04-19T01:06:03;34.40;;;21.35;;
23676;SDS011;31493;49.058;12.190;2023-04-19T01:08:30;35.40;;;21.45;;
23676;SDS011;31493;49.058;12.190;2023-04-19T01:10:57;31.63;;;20.67;;
23676;SDS011;31493;49.058;12.190;2023-04-19T01:13:24;32.63;;;21.08;;
23676;SDS011;31493;49.058;12.190;2023-04-19T01:15:52;38.63;;;22.93;;
23676;SDS011;31493;49.058;12.190;2023-04-19T01:18:22;36.47;;;21.40;;
23676;SDS011;31493;49.058;12.190;2023-04-19T01:20:50;35.30;;;22.25;;
23676;SDS011;31493;49.058;12.190;2023-04-19T01:23:18;36.08;;;21.85;;
23676;SDS011;31493;49.058;12.190;2023-04-19T01:25:45;33.13;;;21.52;;
23676;SDS011;31493;49.058;12.190;2023-04-19T01:28:12;33.50;;;22.17;;
23676;SDS011;31493;49.058;12.190;2023-04-19T01:30:40;37.78;;;22.27;;
23676;SDS011;31493;49.058;12.190;2023-04-19T01:33:07;41.55;;;24.58;;
23676;SDS011;31493;49.058;12.190;2023-04-19T01:35:34;34.55;;;22.98;;
23676;SDS011;31493;49.058;12.190;2023-04-19T01:38:01;39.15;;;23.48;;
23676;SDS011;31493;49.058;12.190;2023-04-19T01:40:29;39.03;;;23.30;;
23676;SDS011;31493;49.058;12.190;2023-04-19T01:42:56;38.08;;;23.70;;
23676;SDS011;31493;49.058;12.190;2023-04-19T01:45:23;36.97;;;22.05;;
23676;SDS011;31493;49.058;12.190;2023-04-19T01:47:51;39.78;;;24.15;;
23676;SDS011;31493;49.058;12.190;2023-04-19T01:50:18;40.03;;;23.00;;
23676;SDS011;31493;49.058;12.190;2023-04-19T01:52:45;39.05;;;23.02;;
23676;SDS011;31493;49.058;12.190;2023-04-19T01:55:12;40.13;;;24.25;;
23676;SDS011;31493;49.058;12.190;2023-04-19T01:57:40;36.72;;;22.60;;
23676;SDS011;31493;49.058;12.190;2023-04-19T02:00:07;33.95;;;22.13;;
23676;SDS011;31493;49.058;12.190;2023-04-19T02:02:35;35.70;;;22.38;;
23676;SDS011;31493;49.058;12.190;2023-04-19T02:05:03;38.17;;;22.25;;
23676;SDS011;31493;49.058;12.190;2023-04-19T02:07:30;35.47;;;23.17;;
23676;SDS011;31493;49.058;12.190;2023-04-19T02:09:57;37.08;;;22.88;;
23676;SDS011;31493;49.058;12.190;2023-04-19T02:12:25;36.17;;;22.90;;
23676;SDS011;31493;49.058;12.190;2023-04-19T02:14:54;36.60;;;23.20;;
23676;SDS011;31493;49.058;12.190;2023-04-19T02:17:22;40.03;;;23.52;;
23676;SDS011;31493;49.058;12.190;2023-04-19T02:19:49;41.63;;;24.38;;
23676;SDS011;31493;49.058;12.190;2023-04-19T02:22:16;40.53;;;24.30;;
23676;SDS011;31493;49.058;12.190;2023-04-19T02:24:44;39.63;;;24.60;;
23676;SDS011;31493;49.058;12.190;2023-04-19T02:27:11;44.92;;;23.80;;
23676;SDS011;31493;49.058;12.190;2023-04-19T02:29:38;38.10;;;23.88;;
23676;SDS011;31493;49.058;12.190;2023-04-19T02:32:07;47.58;;;24.77;;
23676;SDS011;31493;49.058;12.190;2023-04-19T02:34:34;42.60;;;24.95;;
23676;SDS011;31493;49.058;12.190;2023-04-19T02:37:01;42.38;;;25.27;;
23676;SDS011;31493;49.058;12.190;2023-04-19T02:39:28;42.50;;;25.55;;
23676;SDS011;31493;49.058;12.190;2023-04-19T02:41:55;47.67;;;27.30;;
23676;SDS011;31493;49.058;12.190;2023-04-19T02:44:23;44.95;;;26.83;;
23676;SDS011;31493;49.058;12.190;2023-04-19T02:46:50;42.50;;;25.75;;
23676;SDS011;31493;49.058;12.190;2023-04-19T02:49:19;44.28;;;26.73;;
23676;SDS011;31493;49.058;12.190;2023-04-19T02:54:13;48.33;;;26.58;;
23676;SDS011;31493;49.058;12.190;2023-04-19T02:56:40;48.97;;;26.45;;
23676;SDS011;31493;49.058;12.190;2023-04-19T02:59:07;45.60;;;25.92;;
23676;SDS011;31493;49.058;12.190;2023-04-19T03:01:34;47.80;;;27.88;;
23676;SDS011;31493;49.058;12.190;2023-04-19T03:04:01;42.90;;;27.65;;
23676;SDS011;31493;49.058;12.190;2023-04-19T03:06:29;49.58;;;27.25;;
23676;SDS011;31493;49.058;12.190;2023-04-19T03:08:56;46.25;;;27.33;;
23676;SDS011;31493;49.058;12.190;2023-04-19T03:11:23;48.17;;;28.45;;
23676;SDS011;31493;49.058;12.190;2023-04-19T03:13:51;48.42;;;28.40;;
23676;SDS011;31493;49.058;12.190;2023-04-19T03:16:18;47.75;;;29.25;;
23676;SDS011;31493;49.058;12.190;2023-04-19T03:18:45;49.47;;;27.95;;
23676;SDS011;31493;49.058;12.190;2023-04-19T03:21:12;45.47;;;27.80;;
23676;SDS011;31493;49.058;12.190;2023-04-19T03:23:41;47.53;;;28.42;;
23676;SDS011;31493;49.058;12.190;2023-04-19T03:26:08;47.20;;;29.27;;
23676;SDS011;31493;49.058;12.190;2023-04-19T03:28:35;48.22;;;28.60;;
23676;SDS011;31493;49.058;12.190;2023-04-19T03:31:02;47.33;;;27.27;;
23676;SDS011;31493;49.058;12.190;2023-04-19T03:33:29;49.10;;;28.73;;
23676;SDS011;31493;49.058;12.190;2023-04-19T03:35:56;47.88;;;28.58;;
23676;SDS011;31493;49.058;12.190;2023-04-19T03:38:23;44.70;;;28.70;;
23676;SDS011;31493;49.058;12.190;2023-04-19T03:40:51;49.95;;;28.83;;
23676;SDS011;31493;49.058;12.190;2023-04-19T03:43:20;47.03;;;28.30;;
23676;SDS011;31493;49.058;12.190;2023-04-19T03:45:48;52.97;;;29.30;;
23676;SDS011;31493;49.058;12.190;2023-04-19T03:48:15;47.00;;;28.67;;
23676;SDS011;31493;49.058;12.190;2023-04-19T03:50:43;44.88;;;28.40;;
23676;SDS011;31493;49.058;12.190;2023-04-19T03:53:09;50.28;;;28.70;;
23676;SDS011;31493;49.058;12.190;2023-04-19T03:55:36;49.95;;;29.17;;
23676;SDS011;31493;49.058;12.190;2023-04-19T03:58:05;47.40;;;28.58;;
23676;SDS011;31493;49.058;12.190;2023-04-19T04:00:32;52.63;;;29.50;;
23676;SDS011;31493;49.058;12.190;2023-04-19T04:02:59;48.53;;;29.25;;
23676;SDS011;31493;49.058;12.190;2023-04-19T04:05:26;51.53;;;29.23;;
23676;SDS011;31493;49.058;12.190;2023-04-19T04:07:53;48.80;;;30.30;;
23676;SDS011;31493;49.058;12.190;2023-04-19T04:10:20;47.88;;;29.63;;
23676;SDS011;31493;49.058;12.190;2023-04-19T04:12:47;50.40;;;30.63;;
23676;SDS011;31493;49.058;12.190;2023-04-19T04:15:16;52.97;;;30.10;;
23676;SDS011;31493;49.058;12.190;2023-04-19T04:17:43;51.45;;;29.95;;
23676;SDS011;31493;49.058;12.190;2023-04-19T04:20:11;52.92;;;30.20;;
23676;SDS011;31493;49.058;12.190;2023-04-19T04:22:39;49.30;;;29.05;;
23676;SDS011;31493;49.058;12.190;2023-04-19T04:25:07;51.33;;;29.58;;
23676;SDS011;31493;49.058;12.190;2023-04-19T04:27:35;49.97;;;29.17;;
23676;SDS011;31493;49.058;12.190;2023-04-19T04:30:02;50.95;;;29.65;;
23676;SDS011;31493;49.058;12.190;2023-04-19T04:32:31;52.17;;;30.17;;
23676;SDS011;31493;49.058;12.190;2023-04-19T04:35:00;48.25;;;29.33;;
23676;SDS011;31493;49.058;12.190;2023-04-19T04:37:27;52.65;;;30.88;;
23676;SDS011;31493;49.058;12.190;2023-04-19T04:39:54;52.60;;;30.83;;
23676;SDS011;31493;49.058;12.190;2023-04-19T04:42:21;54.28;;;29.80;;
23676;SDS011;31493;49.058;12.190;2023-04-19T04:44:48;51.38;;;30.85;;
23676;SDS011;31493;49.058;12.190;2023-04-19T04:47:16;50.58;;;30.55;;
23676;SDS011;31493;49.058;12.190;2023-04-19T04:49:45;55.63;;;31.60;;
23676;SDS011;31493;49.058;12.190;2023-04-19T04:52:12;50.33;;;30.73;;
23676;SDS011;31493;49.058;12.190;2023-04-19T04:54:39;54.03;;;31.67;;
23676;SDS011;31493;49.058;12.190;2023-04-19T04:57:07;50.55;;;31.25;;
23676;SDS011;31493;49.058;12.190;2023-04-19T04:59:34;55.77;;;32.07;;
23676;SDS011;31493;49.058;12.190;2023-04-19T05:02:01;49.97;;;29.88;;
23676;SDS011;31493;49.058;12.190;2023-04-19T05:04:28;39.25;;;24.98;;
23676;SDS011;31493;49.058;12.190;2023-04-19T05:06:57;51.83;;;31.25;;
23676;SDS011;31493;49.058;12.190;2023-04-19T05:09:24;53.25;;;32.17;;
23676;SDS011;31493;49.058;12.190;2023-04-19T05:11:51;49.92;;;29.35;;
23676;SDS011;31493;49.058;12.190;2023-04-19T05:14:18;48.05;;;28.45;;
23676;SDS011;31493;49.058;12.190;2023-04-19T05:16:45;50.97;;;29.10;;
23676;SDS011;31493;49.058;12.190;2023-04-19T05:19:12;48.33;;;29.02;;
23676;SDS011;31493;49.058;12.190;2023-04-19T05:21:39;43.03;;;27.85;;
23676;SDS011;31493;49.058;12.190;2023-04-19T05:24:08;44.40;;;26.13;;
23676;SDS011;31493;49.058;12.190;2023-04-19T05:26:35;45.55;;;26.73;;
23676;SDS011;31493;49.058;12.190;2023-04-19T05:29:02;44.40;;;26.75;;
23676;SDS011;31493;49.058;12.190;2023-04-19T05:31:29;45.50;;;26.38;;
23676;SDS011;31493;49.058;12.190;2023-04-19T05:33:57;46.20;;;27.15;;
23676;SDS011;31493;49.058;12.190;2023-04-19T05:36:24;40.33;;;25.27;;
23676;SDS011;31493;49.058;12.190;2023-04-19T05:38:51;41.55;;;26.13;;
23676;SDS011;31493;49.058;12.190;2023-04-19T05:41:20;41.67;;;25.10;;
23676;SDS011;31493;49.058;12.190;2023-04-19T05:43:47;40.50;;;24.60;;
23676;SDS011;31493;49.058;12.190;2023-04-19T05:46:14;39.70;;;25.25;;
23676;SDS011;31493;49.058;12.190;2023-04-19T05:48:41;40.75;;;25.52;;
23676;SDS011;31493;49.058;12.190;2023-04-19T05:51:08;40.25;;;24.63;;
23676;SDS011;31493;49.058;12.190;2023-04-19T05:53:35;41.92;;;26.52;;
23676;SDS011;31493;49.058;12.190;2023-04-19T05:56:02;42.90;;;26.48;;
23676;SDS011;31493;49.058;12.190;2023-04-19T05:58:30;42.25;;;27.20;;
23676;SDS011;31493;49.058;12.190;2023-04-19T06:00:57;40.80;;;26.70;;
23676;SDS011;31493;49.058;12.190;2023-04-19T06:03:24;38.10;;;24.55;;
23676;SDS011;31493;49.058;12.190;2023-04-19T06:05:51;39.85;;;25.38;;
23676;SDS011;31493;49.058;12.190;2023-04-19T06:08:18;37.72;;;23.83;;
23676;SDS011;31493;49.058;12.190;2023-04-19T06:10:45;37.10;;;23.60;;
23676;SDS011;31493;49.058;12.190;2023-04-19T06:13:14;33.72;;;23.65;;
23676;SDS011;31493;49.058;12.190;2023-04-19T06:15:42;37.15;;;23.95;;
23676;SDS011;31493;49.058;12.190;2023-04-19T06:18:10;36.80;;;23.42;;
23676;SDS011;31493;49.058;12.190;2023-04-19T06:20:37;38.30;;;24.02;;
23676;SDS011;31493;49.058;12.190;2023-04-19T06:23:04;36.80;;;22.90;;
23676;SDS011;31493;49.058;12.190;2023-04-19T06:25:31;33.65;;;22.77;;
23676;SDS011;31493;49.058;12.190;2023-04-19T06:27:58;35.15;;;23.30;;
23676;SDS011;31493;49.058;12.190;2023-04-19T06:30:25;34.53;;;23.25;;
23676;SDS011;31493;49.058;12.190;2023-04-19T06:32:54;36.92;;;23.98;;
23676;SDS011;31493;49.058;12.190;2023-04-19T06:35:21;41.17;;;24.10;;
23676;SDS011;31493;49.058;12.190;2023-04-19T06:37:49;42.38;;;24.63;;
23676;SDS011;31493;49.058;12.190;2023-04-19T06:40:16;37.00;;;23.25;;
23676;SDS011;31493;49.058;12.190;2023-04-19T06:42:44;39.88;;;25.15;;
23676;SDS011;31493;49.058;12.190;2023-04-19T06:45:11;41.40;;;24.85;;
23676;SDS011;31493;49.058;12.190;2023-04-19T06:47:39;41.58;;;25.50;;
23676;SDS011;31493;49.058;12.190;2023-04-19T06:50:08;44.97;;;27.33;;
23676;SDS011;31493;49.058;12.190;2023-04-19T06:52:36;40.15;;;26.23;;
23676;SDS011;31493;49.058;12.190;2023-04-19T06:55:03;45.20;;;27.95;;
23676;SDS011;31493;49.058;12.190;2023-04-19T06:57:31;47.50;;;27.83;;
23676;SDS011;31493;49.058;12.190;2023-04-19T06:59:58;56.40;;;32.72;;
23676;SDS011;31493;49.058;12.190;2023-04-19T07:02:25;53.42;;;30.63;;
23676;SDS011;31493;49.058;12.190;2023-04-19T07:04:52;45.97;;;29.45;;
23676;SDS011;31493;49.058;12.190;2023-04-19T07:07:21;52.88;;;30.17;;
23676;SDS011;31493;49.058;12.190;2023-04-19T07:09:48;51.90;;;32.65;;
23676;SDS011;31493;49.058;12.190;2023-04-19T07:12:15;46.28;;;28.73;;
23676;SDS011;31493;49.058;12.190;2023-04-19T07:14:42;42.10;;;26.52;;
23676;SDS011;31493;49.058;12.190;2023-04-19T07:17:09;43.67;;;27.05;;
23676;SDS011;31493;49.058;12.190;2023-04-19T07:19:37;43.73;;;28.83;;
23676;SDS011;31493;49.058;12.190;2023-04-19T07:22:04;43.75;;;27.40;;
23676;SDS011;31493;49.058;12.190;2023-04-19T07:24:33;41.88;;;26.20;;
23676;SDS011;31493;49.058;12.190;2023-04-19T07:27:00;41.15;;;25.73;;
23676;SDS011;31493;49.058;12.190;2023-04-19T07:29:27;41.00;;;25.60;;
23676;SDS011;31493;49.058;12.190;2023-04-19T07:31:54;44.25;;;24.48;;
23676;SDS011;31493;49.058;12.190;2023-04-19T07:34:21;40.38;;;25.20;;
23676;SDS011;31493;49.058;12.190;2023-04-19T07:36:48;40.05;;;26.00;;
23676;SDS011;31493;49.058;12.190;2023-04-19T07:39:15;38.17;;;23.05;;
23676;SDS011;31493;49.058;12.190;2023-04-19T07:41:43;42.40;;;24.75;;
23676;SDS011;31493;49.058;12.190;2023-04-19T07:44:10;32.10;;;20.45;;
23676;SDS011;31493;49.058;12.190;2023-04-19T07:46:38;37.20;;;23.33;;
23676;SDS011;31493;49.058;12.190;2023-04-19T07:49:08;35.92;;;21.88;;
23676;SDS011;31493;49.058;12.190;2023-04-19T07:51:35;37.45;;;21.58;;
23676;SDS011;31493;49.058;12.190;2023-04-19T07:54:02;34.83;;;22.02;;
23676;SDS011;31493;49.058;12.190;2023-04-19T07:56:29;39.55;;;22.73;;
23676;SDS011;31493;49.058;12.190;2023-04-19T07:58:58;32.65;;;20.80;;
23676;SDS011;31493;49.058;12.190;2023-04-19T08:03:52;37.88;;;22.98;;
23676;SDS011;31493;49.058;12.190;2023-04-19T08:06:19;38.47;;;23.20;;
23676;SDS011;31493;49.058;12.190;2023-04-19T08:08:46;33.70;;;21.45;;
23676;SDS011;31493;49.058;12.190;2023-04-19T08:11:13;34.08;;;21.40;;
23676;SDS011;31493;49.058;12.190;2023-04-19T08:13:41;38.33;;;22.02;;
23676;SDS011;31493;49.058;12.190;2023-04-19T08:16:09;35.97;;;21.90;;
23676;SDS011;31493;49.058;12.190;2023-04-19T08:18:36;37.25;;;22.65;;
23676;SDS011;31493;49.058;12.190;2023-04-19T08:21:03;35.08;;;20.88;;
23676;SDS011;31493;49.058;12.190;2023-04-19T08:23:31;38.05;;;22.67;;
23676;SDS011;31493;49.058;12.190;2023-04-19T08:25:58;37.97;;;22.63;;
23676;SDS011;31493;49.058;12.190;2023-04-19T08:28:25;37.63;;;22.67;;
23676;SDS011;31493;49.058;12.190;2023-04-19T08:30:53;36.25;;;22.70;;
23676;SDS011;31493;49.058;12.190;2023-04-19T08:33:21;41.45;;;23.05;;
23676;SDS011;31493;49.058;12.190;2023-04-19T08:35:48;38.75;;;23.35;;
23676;SDS011;31493;49.058;12.190;2023-04-19T08:38:15;38.75;;;22.88;;
23676;SDS011;31493;49.058;12.190;2023-04-19T08:40:44;39.28;;;23.55;;
23676;SDS011;31493;49.058;12.190;2023-04-19T08:43:12;39.05;;;22.77;;
23676;SDS011;31493;49.058;12.190;2023-04-19T08:45:42;36.17;;;21.92;;
23676;SDS011;31493;49.058;12.190;2023-04-19T08:48:12;34.13;;;21.38;;
23676;SDS011;31493;49.058;12.190;2023-04-19T08:50:42;33.15;;;21.27;;
23676;SDS011;31493;49.058;12.190;2023-04-19T08:53:10;35.53;;;21.45;;
23676;SDS011;31493;49.058;12.190;2023-04-19T08:55:39;33.38;;;21.25;;
23676;SDS011;31493;49.058;12.190;2023-04-19T08:58:07;28.60;;;19.58;;
23676;SDS011;31493;49.058;12.190;2023-04-19T09:00:37;30.77;;;20.00;;
23676;SDS011;31493;49.058;12.190;2023-04-19T09:03:05;26.48;;;17.80;;
23676;SDS011;31493;49.058;12.190;2023-04-19T09:05:33;24.02;;;17.05;;
23676;SDS011;31493;49.058;12.190;2023-04-19T09:10:51;29.20;;;19.40;;
23676;SDS011;31493;49.058;12.190;2023-04-19T09:13:20;25.92;;;17.27;;
23676;SDS011;31493;49.058;12.190;2023-04-19T09:15:47;24.30;;;17.25;;
23676;SDS011;31493;49.058;12.190;2023-04-19T09:18:14;24.73;;;17.05;;
23676;SDS011;31493;49.058;12.190;2023-04-19T09:20:41;23.90;;;16.75;;
23676;SDS011;31493;49.058;12.190;2023-04-19T09:23:10;21.85;;;14.82;;
23676;SDS011;31493;49.058;12.190;2023-04-19T09:25:40;21.98;;;15.93;;
23676;SDS011;31493;49.058;12.190;2023-04-19T09:28:17;22.90;;;15.93;;
23676;SDS011;31493;49.058;12.190;2023-04-19T09:30:45;24.27;;;17.30;;
23676;SDS011;31493;49.058;12.190;2023-04-19T09:33:12;23.67;;;15.60;;
23676;SDS011;31493;49.058;12.190;2023-04-19T09:35:40;27.73;;;15.50;;
23676;SDS011;31493;49.058;12.190;2023-04-19T09:38:09;18.13;;;13.52;;
23676;SDS011;31493;49.058;12.190;2023-04-19T09:40:37;21.90;;;14.27;;
23676;SDS011;31493;49.058;12.190;2023-04-19T09:43:06;25.35;;;15.90;;
23676;SDS011;31493;49.058;12.190;2023-04-19T09:45:40;26.02;;;17.10;;
23676;SDS011;31493;49.058;12.190;2023-04-19T09:48:08;25.15;;;16.83;;
23676;SDS011;31493;49.058;12.190;2023-04-19T09:50:36;23.73;;;16.03;;
23676;SDS011;31493;49.058;12.190;2023-04-19T09:53:17;16.98;;;12.25;;
23676;SDS011;31493;49.058;12.190;2023-04-19T09:55:45;14.52;;;10.90;;
23676;SDS011;31493;49.058;12.190;2023-04-19T09:58:14;11.93;;;7.55;;
23676;SDS011;31493;49.058;12.190;2023-04-19T10:00:41;13.82;;;9.88;;
23676;SDS011;31493;49.058;12.190;2023-04-19T10:03:12;15.57;;;9.63;;
23676;SDS011;31493;49.058;12.190;2023-04-19T10:05:41;16.70;;;12.25;;
23676;SDS011;31493;49.058;12.190;2023-04-19T10:08:09;20.00;;;12.10;;
23676;SDS011;31493;49.058;12.190;2023-04-19T10:10:38;22.83;;;14.27;;
23676;SDS011;31493;49.058;12.190;2023-04-19T10:13:06;22.67;;;13.73;;
23676;SDS011;31493;49.058;12.190;2023-04-19T10:15:38;20.33;;;14.07;;
23676;SDS011;31493;49.058;12.190;2023-04-19T10:18:08;25.10;;;15.57;;
23676;SDS011;31493;49.058;12.190;2023-04-19T10:20:37;23.75;;;16.35;;
23676;SDS011;31493;49.058;12.190;2023-04-19T10:23:07;24.25;;;16.38;;
23676;SDS011;31493;49.058;12.190;2023-04-19T10:25:35;26.38;;;17.52;;
23676;SDS011;31493;49.058;12.190;2023-04-19T10:28:03;28.23;;;16.73;;
23676;SDS011;31493;49.058;12.190;2023-04-19T10:30:31;24.33;;;16.20;;
23676;SDS011;31493;49.058;12.190;2023-04-19T10:32:59;24.80;;;16.80;;
23676;SDS011;31493;49.058;12.190;2023-04-19T10:35:33;22.80;;;14.13;;
23676;SDS011;31493;49.058;12.190;2023-04-19T10:38:05;21.80;;;15.07;;
23676;SDS011;31493;49.058;12.190;2023-04-19T10:40:52;20.52;;;15.35;;
23676;SDS011;31493;49.058;12.190;2023-04-19T10:43:21;21.20;;;14.13;;
23676;SDS011;31493;49.058;12.190;2023-04-19T10:45:49;24.90;;;15.20;;
23676;SDS011;31493;49.058;12.190;2023-04-19T10:48:33;31.02;;;18.10;;
23676;SDS011;31493;49.058;12.190;2023-04-19T10:51:03;24.05;;;16.80;;
23676;SDS011;31493;49.058;12.190;2023-04-19T10:53:48;17.98;;;11.88;;
23676;SDS011;31493;49.058;12.190;2023-04-19T10:56:17;17.80;;;12.15;;
23676;SDS011;31493;49.058;12.190;2023-04-19T11:01:32;19.63;;;13.35;;
23676;SDS011;31493;49.058;12.190;2023-04-19T11:04:04;20.60;;;14.70;;
23676;SDS011;31493;49.058;12.190;2023-04-19T11:06:31;25.75;;;16.42;;
23676;SDS011;31493;49.058;12.190;2023-04-19T11:08:58;22.70;;;14.35;;
23676;SDS011;31493;49.058;12.190;2023-04-19T11:11:27;20.35;;;13.93;;
23676;SDS011;31493;49.058;12.190;2023-04-19T11:13:54;20.40;;;12.60;;
23676;SDS011;31493;49.058;12.190;2023-04-19T11:16:23;23.50;;;15.00;;
23676;SDS011;31493;49.058;12.190;2023-04-19T11:18:50;20.77;;;14.10;;
23676;SDS011;31493;49.058;12.190;2023-04-19T11:21:19;20.23;;;13.93;;
23676;SDS011;31493;49.058;12.190;2023-04-19T11:23:46;20.77;;;13.82;;
23676;SDS011;31493;49.058;12.190;2023-04-19T11:26:14;22.20;;;13.82;;
23676;SDS011;31493;49.058;12.190;2023-04-19T11:28:41;21.60;;;14.73;;
23676;SDS011;31493;49.058;12.190;2023-04-19T11:31:10;19.05;;;12.32;;
23676;SDS011;31493;49.058;12.190;2023-04-19T11:33:37;22.17;;;14.13;;
23676;SDS011;31493;49.058;12.190;2023-04-19T11:36:04;20.02;;;13.25;;
23676;SDS011;31493;49.058;12.190;2023-04-19T11:38:38;19.90;;;13.35;;
23676;SDS011;31493;49.058;12.190;2023-04-19T11:41:05;20.17;;;13.27;;
23676;SDS011;31493;49.058;12.190;2023-04-19T11:43:33;25.92;;;15.63;;
23676;SDS011;31493;49.058;12.190;2023-04-19T11:46:04;20.80;;;14.65;;
23676;SDS011;31493;49.058;12.190;2023-04-19T11:48:32;21.33;;;15.35;;
23676;SDS011;31493;49.058;12.190;2023-04-19T11:50:59;19.17;;;13.23;;
23676;SDS011;31493;49.058;12.190;2023-04-19T11:53:27;18.23;;;12.73;;
23676;SDS011;31493;49.058;12.190;2023-04-19T11:56:02;18.30;;;12.95;;
23676;SDS011;31493;49.058;12.190;2023-04-19T11:58:31;21.67;;;13.38;;
23676;SDS011;31493;49.058;12.190;2023-04-19T12:01:01;17.75;;;12.43;;
23676;SDS011;31493;49.058;12.190;2023-04-19T12:03:30;23.95;;;17.40;;
23676;SDS011;31493;49.058;12.190;2023-04-19T12:05:58;15.65;;;11.63;;
23676;SDS011;31493;49.058;12.190;2023-04-19T12:08:29;19.05;;;12.55;;
23676;SDS011;31493;49.058;12.190;2023-04-19T12:10:58;24.02;;;16.83;;
23676;SDS011;31493;49.058;12.190;2023-04-19T12:13:27;16.88;;;10.93;;
23676;SDS011;31493;49.058;12.190;2023-04-19T12:15:56;15.27;;;10.77;;
23676;SDS011;31493;49.058;12.190;2023-04-19T12:18:23;18.13;;;11.52;;
23676;SDS011;31493;49.058;12.190;2023-04-19T12:20:51;17.88;;;13.77;;
23676;SDS011;31493;49.058;12.190;2023-04-19T12:23:19;14.23;;;9.60;;
23676;SDS011;31493;49.058;12.190;2023-04-19T12:25:47;12.50;;;9.40;;
23676;SDS011;31493;49.058;12.190;2023-04-19T12:28:16;15.70;;;10.75;;
23676;SDS011;31493;49.058;12.190;2023-04-19T12:30:43;15.50;;;10.85;;
23676;SDS011;31493;49.058;12.190;2023-04-19T12:33:10;13.82;;;9.38;;
23676;SDS011;31493;49.058;12.190;2023-04-19T12:35:37;14.95;;;11.27;;
23676;SDS011;31493;49.058;12.190;2023-04-19T12:38:04;11.55;;;8.65;;
23676;SDS011;31493;49.058;12.190;2023-04-19T12:40:31;14.73;;;7.93;;
23676;SDS011;31493;49.058;12.190;2023-04-19T12:42:59;9.95;;;7.50;;
23676;SDS011;31493;49.058;12.190;2023-04-19T12:45:27;9.73;;;7.40;;
23676;SDS011;31493;49.058;12.190;2023-04-19T12:47:54;11.07;;;7.88;;
23676;SDS011;31493;49.058;12.190;2023-04-19T12:50:21;8.85;;;6.95;;
23676;SDS011;31493;49.058;12.190;2023-04-19T12:52:48;12.00;;;7.03;;
23676;SDS011;31493;49.058;12.190;2023-04-19T12:55:18;11.15;;;7.80;;
23676;SDS011;31493;49.058;12.190;2023-04-19T12:57:45;9.13;;;7.35;;
23676;SDS011;31493;49.058;12.190;2023-04-19T13:00:12;11.15;;;7.50;;
23676;SDS011;31493;49.058;12.190;2023-04-19T13:02:41;12.32;;;9.32;;
23676;SDS011;31493;49.058;12.190;2023-04-19T13:05:09;15.23;;;12.30;;
23676;SDS011;31493;49.058;12.190;2023-04-19T13:07:37;10.05;;;7.57;;
23676;SDS011;31493;49.058;12.190;2023-04-19T13:10:04;14.90;;;9.95;;
23676;SDS011;31493;49.058;12.190;2023-04-19T13:12:32;11.27;;;7.67;;
23676;SDS011;31493;49.058;12.190;2023-04-19T13:15:00;11.30;;;8.32;;
23676;SDS011;31493;49.058;12.190;2023-04-19T13:17:27;10.70;;;8.02;;
23676;SDS011;31493;49.058;12.190;2023-04-19T13:19:55;11.98;;;8.35;;
23676;SDS011;31493;49.058;12.190;2023-04-19T13:22:22;10.00;;;7.93;;
23676;SDS011;31493;49.058;12.190;2023-04-19T13:24:49;14.52;;;8.65;;
23676;SDS011;31493;49.058;12.190;2023-04-19T13:27:16;11.05;;;7.97;;
23676;SDS011;31493;49.058;12.190;2023-04-19T13:29:43;12.30;;;8.63;;
23676;SDS011;31493;49.058;12.190;2023-04-19T13:32:10;10.00;;;8.00;;
23676;SDS011;31493;49.058;12.190;2023-04-19T13:34:38;10.27;;;7.57;;
23676;SDS011;31493;49.058;12.190;2023-04-19T13:37:07;7.93;;;6.50;;
23676;SDS011;31493;49.058;12.190;2023-04-19T13:39:34;11.32;;;7.18;;
23676;SDS011;31493;49.058;12.190;2023-04-19T13:42:01;10.25;;;8.02;;
23676;SDS011;31493;49.058;12.190;2023-04-19T13:44:28;9.90;;;7.97;;
23676;SDS011;31493;49.058;12.190;2023-04-19T13:46:55;10.40;;;8.13;;
23676;SDS011;31493;49.058;12.190;2023-04-19T13:49:22;9.95;;;7.63;;
23676;SDS011;31493;49.058;12.190;2023-04-19T13:51:49;9.80;;;7.75;;
23676;SDS011;31493;49.058;12.190;2023-04-19T13:54:18;11.88;;;7.97;;
23676;SDS011;31493;49.058;12.190;2023-04-19T13:56:45;12.15;;;7.82;;
23676;SDS011;31493;49.058;12.190;2023-04-19T13:59:12;10.13;;;8.27;;
23676;SDS011;31493;49.058;12.190;2023-04-19T14:01:40;10.32;;;7.95;;
23676;SDS011;31493;49.058;12.190;2023-04-19T14:04:07;10.77;;;8.20;;
23676;SDS011;31493;49.058;12.190;2023-04-19T14:06:34;9.90;;;8.48;;
23676;SDS011;31493;49.058;12.190;2023-04-19T14:09:01;10.00;;;7.78;;
23676;SDS011;31493;49.058;12.190;2023-04-19T14:11:29;9.48;;;7.80;;
23676;SDS011;31493;49.058;12.190;2023-04-19T14:13:56;10.35;;;8.25;;
23676;SDS011;31493;49.058;12.190;2023-04-19T14:16:25;11.43;;;8.57;;
23676;SDS011;31493;49.058;12.190;2023-04-19T14:18:53;10.98;;;9.02;;
23676;SDS011;31493;49.058;12.190;2023-04-19T14:21:20;13.45;;;9.88;;
23676;SDS011;31493;49.058;12.190;2023-04-19T14:23:47;14.60;;;10.23;;
23676;SDS011;31493;49.058;12.190;2023-04-19T14:26:17;14.10;;;11.30;;